sensor_id;sensor_type;location;lat;lon;timestamp;pressure;altitude;pressure_sealevel;temperature;humidity
24620;BME280;12763;55.802;37.404;2023-04-26T00:02:12;98235.72;;;19.28;78.09
24620;BME280;12763;55.802;37.404;2023-04-26T00:04:38;98243.56;;;19.13;79.40
24620;BME280;12763;55.802;37.404;2023-04-26T00:07:04;98242.34;;;19.19;79.48
24620;BME280;12763;55.802;37.404;2023-04-26T00:09:31;98229.44;;;19.04;79.67
24620;BME280;12763;55.802;37.404;2023-04-26T00:11:57;98231.81;;;19.75;75.46
24620;BME280;12763;55.802;37.404;2023-04-26T00:14:23;98220.84;;;19.79;74.61
24620;BME280;12763;55.802;37.404;2023-04-26T00:16:49;98224.09;;;19.40;77.80
24620;BME280;12763;55.802;37.404;2023-04-26T00:19:15;98221.22;;;19.59;77.08
24620;BME280;12763;55.802;37.404;2023-04-26T00:21:42;98225.19;;;20.12;74.17
24620;BME280;12763;55.802;37.404;2023-04-26T00:24:08;98219.91;;;20.87;68.64
24620;BME280;12763;55.802;37.404;2023-04-26T00:26:34;98222.69;;;20.87;67.69
24620;BME280;12763;55.802;37.404;2023-04-26T00:29:01;98215.03;;;20.30;70.27
24620;BME280;12763;55.802;37.404;2023-04-26T00:31:28;98211.41;;;20.43;69.88
24620;BME280;12763;55.802;37.404;2023-04-26T00:33:54;98206.84;;;20.06;70.99
24620;BME280;12763;55.802;37.404;2023-04-26T00:36:20;98210.78;;;19.64;74.52
24620;BME280;12763;55.802;37.404;2023-04-26T00:38:46;98205.78;;;19.48;75.72
24620;BME280;12763;55.802;37.404;2023-04-26T00:41:12;98208.72;;;19.83;74.43
24620;BME280;12763;55.802;37.404;2023-04-26T00:43:39;98198.78;;;20.05;72.29
24620;BME280;12763;55.802;37.404;2023-04-26T00:46:07;98195.00;;;20.23;70.93
24620;BME280;12763;55.802;37.404;2023-04-26T00:48:35;98192.03;;;19.78;73.94
24620;BME280;12763;55.802;37.404;2023-04-26T00:51:02;98193.59;;;19.71;75.11
24620;BME280;12763;55.802;37.404;2023-04-26T00:53:29;98187.66;;;19.72;75.67
24620;BME280;12763;55.802;37.404;2023-04-26T00:55:57;98194.19;;;20.09;73.28
24620;BME280;12763;55.802;37.404;2023-04-26T00:58:23;98187.16;;;19.70;75.73
24620;BME280;12763;55.802;37.404;2023-04-26T01:00:51;98179.59;;;19.25;78.77
24620;BME280;12763;55.802;37.404;2023-04-26T01:03:16;98185.94;;;18.98;81.63
24620;BME280;12763;55.802;37.404;2023-04-26T01:05:43;98174.00;;;18.60;85.13
24620;BME280;12763;55.802;37.404;2023-04-26T01:08:09;98167.16;;;19.31;80.01
24620;BME280;12763;55.802;37.404;2023-04-26T01:10:35;98171.56;;;20.05;75.54
24620;BME280;12763;55.802;37.404;2023-04-26T01:13:02;98162.78;;;20.83;69.95
24620;BME280;12763;55.802;37.404;2023-04-26T01:15:28;98164.78;;;21.58;64.77
24620;BME280;12763;55.802;37.404;2023-04-26T01:17:55;98162.94;;;21.84;62.36
24620;BME280;12763;55.802;37.404;2023-04-26T01:20:22;98161.72;;;21.37;64.18
24620;BME280;12763;55.802;37.404;2023-04-26T01:22:48;98157.34;;;21.23;65.17
24620;BME280;12763;55.802;37.404;2023-04-26T01:25:15;98164.69;;;21.41;64.24
24620;BME280;12763;55.802;37.404;2023-04-26T01:27:41;98154.34;;;21.50;63.65
24620;BME280;12763;55.802;37.404;2023-04-26T01:30:07;98151.44;;;21.33;64.75
24620;BME280;12763;55.802;37.404;2023-04-26T01:32:34;98150.03;;;21.83;62.82
24620;BME280;12763;55.802;37.404;2023-04-26T01:35:00;98146.53;;;21.78;62.35
24620;BME280;12763;55.802;37.404;2023-04-26T01:37:26;98146.13;;;21.23;65.19
24620;BME280;12763;55.802;37.404;2023-04-26T01:39:52;98135.88;;;21.88;62.15
24620;BME280;12763;55.802;37.404;2023-04-26T01:42:19;98129.44;;;21.57;62.53
24620;BME280;12763;55.802;37.404;2023-04-26T01:44:45;98133.50;;;22.55;58.48
24620;BME280;12763;55.802;37.404;2023-04-26T01:47:11;98122.09;;;22.52;58.10
24620;BME280;12763;55.802;37.404;2023-04-26T01:49:36;98122.84;;;21.92;60.67
24620;BME280;12763;55.802;37.404;2023-04-26T01:52:02;98121.34;;;21.55;63.21
24620;BME280;12763;55.802;37.404;2023-04-26T01:54:29;98112.44;;;22.01;60.14
24620;BME280;12763;55.802;37.404;2023-04-26T01:56:55;98111.34;;;22.45;58.18
24620;BME280;12763;55.802;37.404;2023-04-26T01:59:21;98106.41;;;22.76;56.75
24620;BME280;12763;55.802;37.404;2023-04-26T02:01:47;98099.91;;;23.19;54.94
24620;BME280;12763;55.802;37.404;2023-04-26T02:04:13;98099.72;;;21.95;58.58
24620;BME280;12763;55.802;37.404;2023-04-26T02:06:38;98103.53;;;21.60;61.61
24620;BME280;12763;55.802;37.404;2023-04-26T02:09:06;98104.03;;;20.34;67.02
24620;BME280;12763;55.802;37.404;2023-04-26T02:11:34;98107.19;;;20.55;67.08
24620;BME280;12763;55.802;37.404;2023-04-26T02:14:00;98098.13;;;21.72;61.66
24620;BME280;12763;55.802;37.404;2023-04-26T02:16:27;98095.00;;;22.39;58.16
24620;BME280;12763;55.802;37.404;2023-04-26T02:18:53;98086.88;;;22.54;57.57
24620;BME280;12763;55.802;37.404;2023-04-26T02:21:20;98093.38;;;21.81;59.37
24620;BME280;12763;55.802;37.404;2023-04-26T02:23:46;98079.81;;;21.75;60.93
24620;BME280;12763;55.802;37.404;2023-04-26T02:26:13;98086.38;;;22.01;59.75
24620;BME280;12763;55.802;37.404;2023-04-26T02:28:42;98081.44;;;22.75;56.28
24620;BME280;12763;55.802;37.404;2023-04-26T02:31:08;98089.72;;;21.33;62.04
24620;BME280;12763;55.802;37.404;2023-04-26T02:33:34;98082.56;;;21.57;61.67
24620;BME280;12763;55.802;37.404;2023-04-26T02:36:04;98088.03;;;22.62;57.29
24620;BME280;12763;55.802;37.404;2023-04-26T02:38:34;98082.59;;;22.74;56.23
24620;BME280;12763;55.802;37.404;2023-04-26T02:41:02;98069.34;;;22.40;57.46
24620;BME280;12763;55.802;37.404;2023-04-26T02:43:29;98068.50;;;23.00;55.06
24620;BME280;12763;55.802;37.404;2023-04-26T02:45:55;98065.56;;;22.79;55.68
24620;BME280;12763;55.802;37.404;2023-04-26T02:48:24;98058.59;;;22.51;56.36
24620;BME280;12763;55.802;37.404;2023-04-26T02:50:50;98056.16;;;22.75;55.73
24620;BME280;12763;55.802;37.404;2023-04-26T02:53:17;98068.63;;;23.03;54.36
24620;BME280;12763;55.802;37.404;2023-04-26T02:55:42;98065.38;;;22.07;58.17
24620;BME280;12763;55.802;37.404;2023-04-26T02:58:08;98059.88;;;21.37;60.78
24620;BME280;12763;55.802;37.404;2023-04-26T03:00:34;98061.31;;;21.82;60.19
24620;BME280;12763;55.802;37.404;2023-04-26T03:03:02;98055.44;;;22.09;58.86
24620;BME280;12763;55.802;37.404;2023-04-26T03:05:28;98058.59;;;21.99;59.34
24620;BME280;12763;55.802;37.404;2023-04-26T03:07:54;98064.13;;;21.82;59.64
24620;BME280;12763;55.802;37.404;2023-04-26T03:10:19;98053.97;;;20.85;65.19
24620;BME280;12763;55.802;37.404;2023-04-26T03:12:46;98047.94;;;21.62;61.93
24620;BME280;12763;55.802;37.404;2023-04-26T03:15:14;98046.25;;;22.17;59.02
24620;BME280;12763;55.802;37.404;2023-04-26T03:17:41;98047.22;;;22.39;57.68
24620;BME280;12763;55.802;37.404;2023-04-26T03:20:08;98039.72;;;22.94;55.63
24620;BME280;12763;55.802;37.404;2023-04-26T03:22:35;98043.50;;;22.98;54.83
24620;BME280;12763;55.802;37.404;2023-04-26T03:25:01;98047.03;;;22.18;58.10
24620;BME280;12763;55.802;37.404;2023-04-26T03:27:32;98032.03;;;21.49;61.85
24620;BME280;12763;55.802;37.404;2023-04-26T03:29:59;98044.25;;;22.35;57.99
24620;BME280;12763;55.802;37.404;2023-04-26T03:32:26;98039.94;;;22.46;57.25
24620;BME280;12763;55.802;37.404;2023-04-26T03:34:52;98033.00;;;22.01;58.57
24620;BME280;12763;55.802;37.404;2023-04-26T03:37:18;98035.97;;;22.30;57.71
24620;BME280;12763;55.802;37.404;2023-04-26T03:39:50;98032.34;;;22.30;57.61
24620;BME280;12763;55.802;37.404;2023-04-26T03:42:19;98030.19;;;22.27;57.58
24620;BME280;12763;55.802;37.404;2023-04-26T03:44:46;98032.09;;;21.18;61.95
24620;BME280;12763;55.802;37.404;2023-04-26T03:47:11;98026.13;;;20.36;67.57
24620;BME280;12763;55.802;37.404;2023-04-26T03:49:40;98023.03;;;20.24;68.70
24620;BME280;12763;55.802;37.404;2023-04-26T03:52:06;98020.94;;;19.71;71.69
24620;BME280;12763;55.802;37.404;2023-04-26T03:54:33;98013.91;;;19.60;73.55
24620;BME280;12763;55.802;37.404;2023-04-26T03:56:59;98011.06;;;19.74;72.69
24620;BME280;12763;55.802;37.404;2023-04-26T03:59:26;98020.34;;;19.83;72.94
24620;BME280;12763;55.802;37.404;2023-04-26T04:01:52;98017.72;;;19.64;74.37
24620;BME280;12763;55.802;37.404;2023-04-26T04:04:19;98014.72;;;19.20;77.23
24620;BME280;12763;55.802;37.404;2023-04-26T04:06:46;98013.78;;;18.97;79.15
24620;BME280;12763;55.802;37.404;2023-04-26T04:09:12;98014.94;;;18.50;82.72
24620;BME280;12763;55.802;37.404;2023-04-26T04:11:38;98013.09;;;19.05;79.95
24620;BME280;12763;55.802;37.404;2023-04-26T04:14:04;98009.44;;;19.05;79.34
24620;BME280;12763;55.802;37.404;2023-04-26T04:16:29;98005.16;;;18.53;83.86
24620;BME280;12763;55.802;37.404;2023-04-26T04:18:56;98006.75;;;19.27;79.93
24620;BME280;12763;55.802;37.404;2023-04-26T04:21:21;98005.69;;;18.68;82.14
24620;BME280;12763;55.802;37.404;2023-04-26T04:23:48;98004.63;;;17.20;92.88
24620;BME280;12763;55.802;37.404;2023-04-26T04:26:15;98006.06;;;16.36;100.00
24620;BME280;12763;55.802;37.404;2023-04-26T04:28:41;98001.75;;;16.20;100.00
24620;BME280;12763;55.802;37.404;2023-04-26T04:31:09;98008.88;;;16.89;100.00
24620;BME280;12763;55.802;37.404;2023-04-26T04:33:37;97999.22;;;17.47;96.93
24620;BME280;12763;55.802;37.404;2023-04-26T04:36:04;98004.22;;;17.50;96.15
24620;BME280;12763;55.802;37.404;2023-04-26T04:38:31;98006.25;;;16.74;100.00
24620;BME280;12763;55.802;37.404;2023-04-26T04:40:57;97998.97;;;16.78;100.00
24620;BME280;12763;55.802;37.404;2023-04-26T04:43:23;98004.22;;;16.56;100.00
24620;BME280;12763;55.802;37.404;2023-04-26T04:45:49;97998.97;;;16.54;100.00
24620;BME280;12763;55.802;37.404;2023-04-26T04:48:15;98001.22;;;17.23;99.88
24620;BME280;12763;55.802;37.404;2023-04-26T04:50:43;98002.00;;;17.05;100.00
24620;BME280;12763;55.802;37.404;2023-04-26T04:53:09;97999.53;;;17.03;100.00
24620;BME280;12763;55.802;37.404;2023-04-26T04:55:37;98008.41;;;16.82;100.00
24620;BME280;12763;55.802;37.404;2023-04-26T04:58:03;98013.31;;;16.66;100.00
24620;BME280;12763;55.802;37.404;2023-04-26T05:00:31;98007.94;;;16.75;100.00
24620;BME280;12763;55.802;37.404;2023-04-26T05:03:15;97999.09;;;16.68;100.00
24620;BME280;12763;55.802;37.404;2023-04-26T05:05:41;98001.75;;;16.20;100.00
24620;BME280;12763;55.802;37.404;2023-04-26T05:08:07;98005.41;;;16.16;100.00
24620;BME280;12763;55.802;37.404;2023-04-26T05:10:33;98002.66;;;16.97;100.00
24620;BME280;12763;55.802;37.404;2023-04-26T05:13:01;98002.97;;;16.95;100.00
24620;BME280;12763;55.802;37.404;2023-04-26T05:15:27;98000.47;;;16.70;100.00
24620;BME280;12763;55.802;37.404;2023-04-26T05:17:52;97994.88;;;16.94;100.00
24620;BME280;12763;55.802;37.404;2023-04-26T05:20:22;97996.91;;;17.12;100.00
24620;BME280;12763;55.802;37.404;2023-04-26T05:22:48;98001.78;;;16.78;100.00
24620;BME280;12763;55.802;37.404;2023-04-26T05:25:14;98001.59;;;17.17;100.00
24620;BME280;12763;55.802;37.404;2023-04-26T05:27:42;97997.84;;;17.02;100.00
24620;BME280;12763;55.802;37.404;2023-04-26T05:30:27;97997.75;;;16.31;100.00
24620;BME280;12763;55.802;37.404;2023-04-26T05:33:05;97997.63;;;16.99;100.00
24620;BME280;12763;55.802;37.404;2023-04-26T05:35:54;97993.88;;;16.85;100.00
24620;BME280;12763;55.802;37.404;2023-04-26T05:38:23;97996.84;;;16.93;100.00
24620;BME280;12763;55.802;37.404;2023-04-26T05:40:49;97988.84;;;16.87;100.00
24620;BME280;12763;55.802;37.404;2023-04-26T05:43:16;97994.19;;;16.60;100.00
24620;BME280;12763;55.802;37.404;2023-04-26T05:45:52;97995.00;;;17.08;100.00
24620;BME280;12763;55.802;37.404;2023-04-26T05:48:20;98007.22;;;16.88;100.00
24620;BME280;12763;55.802;37.404;2023-04-26T05:50:47;97999.34;;;17.37;100.00
24620;BME280;12763;55.802;37.404;2023-04-26T05:53:13;98001.25;;;16.13;100.00
24620;BME280;12763;55.802;37.404;2023-04-26T05:55:42;98001.56;;;16.12;100.00
24620;BME280;12763;55.802;37.404;2023-04-26T05:58:10;98003.41;;;16.21;100.00
24620;BME280;12763;55.802;37.404;2023-04-26T06:00:39;98011.63;;;16.36;100.00
24620;BME280;12763;55.802;37.404;2023-04-26T06:03:06;98003.84;;;16.67;100.00
24620;BME280;12763;55.802;37.404;2023-04-26T06:05:32;97997.97;;;16.69;100.00
24620;BME280;12763;55.802;37.404;2023-04-26T06:08:00;98003.78;;;16.96;100.00
24620;BME280;12763;55.802;37.404;2023-04-26T06:10:26;98003.78;;;16.96;100.00
24620;BME280;12763;55.802;37.404;2023-04-26T06:12:52;98008.41;;;17.06;100.00
24620;BME280;12763;55.802;37.404;2023-04-26T06:15:19;98006.09;;;16.89;100.00
24620;BME280;12763;55.802;37.404;2023-04-26T06:17:45;98002.53;;;17.07;100.00
24620;BME280;12763;55.802;37.404;2023-04-26T06:20:11;98008.53;;;17.19;100.00
24620;BME280;12763;55.802;37.404;2023-04-26T06:22:37;98009.94;;;16.93;100.00
24620;BME280;12763;55.802;37.404;2023-04-26T06:25:05;98019.50;;;16.58;100.00
24620;BME280;12763;55.802;37.404;2023-04-26T06:27:32;98002.75;;;16.63;100.00
24620;BME280;12763;55.802;37.404;2023-04-26T06:29:58;98000.81;;;16.87;100.00
24620;BME280;12763;55.802;37.404;2023-04-26T06:32:31;98009.47;;;17.10;100.00
24620;BME280;12763;55.802;37.404;2023-04-26T06:35:00;98004.06;;;18.16;97.64
24620;BME280;12763;55.802;37.404;2023-04-26T06:37:26;98003.41;;;18.06;96.23
24620;BME280;12763;55.802;37.404;2023-04-26T06:39:53;98011.88;;;18.14;95.91
24620;BME280;12763;55.802;37.404;2023-04-26T06:42:19;98016.50;;;17.87;97.79
24620;BME280;12763;55.802;37.404;2023-04-26T06:44:58;98012.41;;;17.42;100.00
24620;BME280;12763;55.802;37.404;2023-04-26T06:47:24;98019.78;;;16.62;100.00
24620;BME280;12763;55.802;37.404;2023-04-26T06:49:49;98015.66;;;16.49;100.00
24620;BME280;12763;55.802;37.404;2023-04-26T06:52:16;98027.38;;;16.46;100.00
24620;BME280;12763;55.802;37.404;2023-04-26T06:54:41;98026.31;;;16.99;100.00
24620;BME280;12763;55.802;37.404;2023-04-26T06:57:07;98036.78;;;16.26;100.00
24620;BME280;12763;55.802;37.404;2023-04-26T06:59:33;98030.09;;;16.85;100.00
24620;BME280;12763;55.802;37.404;2023-04-26T07:01:59;98038.88;;;16.39;100.00
24620;BME280;12763;55.802;37.404;2023-04-26T07:04:26;98043.72;;;16.29;100.00
24620;BME280;12763;55.802;37.404;2023-04-26T07:06:52;98040.56;;;16.07;100.00
24620;BME280;12763;55.802;37.404;2023-04-26T07:09:18;98029.00;;;16.23;100.00
24620;BME280;12763;55.802;37.404;2023-04-26T07:11:47;98030.22;;;17.22;100.00
24620;BME280;12763;55.802;37.404;2023-04-26T07:14:12;98034.25;;;17.11;100.00
24620;BME280;12763;55.802;37.404;2023-04-26T07:16:38;98049.50;;;16.37;100.00
24620;BME280;12763;55.802;37.404;2023-04-26T07:19:05;98040.13;;;16.57;100.00
24620;BME280;12763;55.802;37.404;2023-04-26T07:21:31;98037.31;;;16.62;100.00
24620;BME280;12763;55.802;37.404;2023-04-26T07:23:57;98044.13;;;16.75;100.00
24620;BME280;12763;55.802;37.404;2023-04-26T07:26:24;98040.66;;;17.12;100.00
24620;BME280;12763;55.802;37.404;2023-04-26T07:28:51;98050.59;;;16.70;100.00
24620;BME280;12763;55.802;37.404;2023-04-26T07:31:18;98047.75;;;16.41;100.00
24620;BME280;12763;55.802;37.404;2023-04-26T07:33:43;98049.13;;;16.15;100.00
24620;BME280;12763;55.802;37.404;2023-04-26T07:36:09;98051.41;;;16.71;100.00
24620;BME280;12763;55.802;37.404;2023-04-26T07:38:35;98058.13;;;16.70;100.00
24620;BME280;12763;55.802;37.404;2023-04-26T07:41:01;98050.16;;;17.11;100.00
24620;BME280;12763;55.802;37.404;2023-04-26T07:43:27;98059.16;;;17.26;100.00
24620;BME280;12763;55.802;37.404;2023-04-26T07:45:53;98051.75;;;17.64;100.00
24620;BME280;12763;55.802;37.404;2023-04-26T07:48:19;98046.84;;;17.56;100.00
24620;BME280;12763;55.802;37.404;2023-04-26T07:50:44;98047.50;;;17.67;100.00
24620;BME280;12763;55.802;37.404;2023-04-26T07:53:10;98046.16;;;17.40;100.00
24620;BME280;12763;55.802;37.404;2023-04-26T07:55:36;98054.88;;;17.57;100.00
24620;BME280;12763;55.802;37.404;2023-04-26T07:58:02;98054.41;;;17.03;100.00
24620;BME280;12763;55.802;37.404;2023-04-26T08:00:29;98055.84;;;17.24;100.00
24620;BME280;12763;55.802;37.404;2023-04-26T08:02:54;98057.34;;;16.88;100.00
24620;BME280;12763;55.802;37.404;2023-04-26T08:05:20;98060.69;;;17.37;100.00
24620;BME280;12763;55.802;37.404;2023-04-26T08:07:46;98065.56;;;17.50;100.00
24620;BME280;12763;55.802;37.404;2023-04-26T08:10:12;98063.09;;;17.25;100.00
24620;BME280;12763;55.802;37.404;2023-04-26T08:12:38;98060.19;;;17.12;100.00
24620;BME280;12763;55.802;37.404;2023-04-26T08:15:04;98062.59;;;17.66;100.00
24620;BME280;12763;55.802;37.404;2023-04-26T08:17:33;98064.25;;;17.67;100.00
24620;BME280;12763;55.802;37.404;2023-04-26T08:19:59;98068.94;;;17.47;100.00
24620;BME280;12763;55.802;37.404;2023-04-26T08:22:25;98081.22;;;17.46;100.00
24620;BME280;12763;55.802;37.404;2023-04-26T08:24:53;98074.06;;;17.64;100.00
24620;BME280;12763;55.802;37.404;2023-04-26T08:27:20;98073.97;;;17.45;100.00
24620;BME280;12763;55.802;37.404;2023-04-26T08:29:46;98076.34;;;17.57;100.00
24620;BME280;12763;55.802;37.404;2023-04-26T08:32:12;98071.53;;;17.63;100.00
24620;BME280;12763;55.802;37.404;2023-04-26T08:34:38;98086.09;;;17.59;100.00
24620;BME280;12763;55.802;37.404;2023-04-26T08:37:07;98074.41;;;17.57;100.00
24620;BME280;12763;55.802;37.404;2023-04-26T08:39:33;98080.63;;;17.92;100.00
24620;BME280;12763;55.802;37.404;2023-04-26T08:42:13;98083.88;;;18.36;100.00
24620;BME280;12763;55.802;37.404;2023-04-26T08:44:41;98075.56;;;17.94;100.00
24620;BME280;12763;55.802;37.404;2023-04-26T08:49:46;98076.22;;;18.42;100.00
24620;BME280;12763;55.802;37.404;2023-04-26T08:52:14;98077.13;;;18.56;100.00
24620;BME280;12763;55.802;37.404;2023-04-26T08:54:42;98081.75;;;18.79;98.56
24620;BME280;12763;55.802;37.404;2023-04-26T08:57:09;98075.94;;;18.75;98.58
24620;BME280;12763;55.802;37.404;2023-04-26T08:59:37;98084.06;;;18.91;97.84
24620;BME280;12763;55.802;37.404;2023-04-26T09:02:09;98080.31;;;18.49;100.00
24620;BME280;12763;55.802;37.404;2023-04-26T09:04:35;98089.91;;;18.06;100.00
24620;BME280;12763;55.802;37.404;2023-04-26T09:07:02;98089.16;;;17.34;100.00
24620;BME280;12763;55.802;37.404;2023-04-26T09:09:34;98098.78;;;16.66;100.00
24620;BME280;12763;55.802;37.404;2023-04-26T09:12:03;98098.38;;;16.54;100.00
24620;BME280;12763;55.802;37.404;2023-04-26T09:14:29;98108.41;;;16.44;100.00
24620;BME280;12763;55.802;37.404;2023-04-26T09:16:56;98104.72;;;16.59;100.00
24620;BME280;12763;55.802;37.404;2023-04-26T09:19:40;98107.25;;;16.51;100.00
24620;BME280;12763;55.802;37.404;2023-04-26T09:22:09;98110.97;;;16.75;100.00
24620;BME280;12763;55.802;37.404;2023-04-26T09:24:48;98099.31;;;17.25;100.00
24620;BME280;12763;55.802;37.404;2023-04-26T09:27:15;98098.75;;;16.99;100.00
24620;BME280;12763;55.802;37.404;2023-04-26T09:32:47;98112.16;;;17.21;100.00
24620;BME280;12763;55.802;37.404;2023-04-26T09:35:38;98110.91;;;17.61;100.00
24620;BME280;12763;55.802;37.404;2023-04-26T09:38:15;98103.56;;;17.89;100.00
24620;BME280;12763;55.802;37.404;2023-04-26T09:40:49;98104.03;;;17.53;100.00
24620;BME280;12763;55.802;37.404;2023-04-26T09:43:16;98101.97;;;17.83;100.00
24620;BME280;12763;55.802;37.404;2023-04-26T09:50:52;98102.19;;;18.24;100.00
24620;BME280;12763;55.802;37.404;2023-04-26T09:55:55;98113.28;;;17.73;100.00
24620;BME280;12763;55.802;37.404;2023-04-26T09:58:21;98119.69;;;17.21;100.00
24620;BME280;12763;55.802;37.404;2023-04-26T10:00:51;98124.28;;;17.35;100.00
24620;BME280;12763;55.802;37.404;2023-04-26T10:03:18;98122.25;;;17.41;100.00
24620;BME280;12763;55.802;37.404;2023-04-26T10:05:45;98121.03;;;17.76;100.00
24620;BME280;12763;55.802;37.404;2023-04-26T10:08:11;98125.13;;;17.36;100.00
24620;BME280;12763;55.802;37.404;2023-04-26T10:10:37;98132.41;;;17.79;100.00
24620;BME280;12763;55.802;37.404;2023-04-26T10:13:05;98124.78;;;17.66;100.00
24620;BME280;12763;55.802;37.404;2023-04-26T10:15:31;98121.81;;;18.18;100.00
24620;BME280;12763;55.802;37.404;2023-04-26T10:17:57;98128.31;;;18.14;100.00
24620;BME280;12763;55.802;37.404;2023-04-26T10:20:26;98132.91;;;18.05;100.00
24620;BME280;12763;55.802;37.404;2023-04-26T10:22:55;98127.91;;;17.59;100.00
24620;BME280;12763;55.802;37.404;2023-04-26T10:25:36;98136.69;;;17.72;100.00
24620;BME280;12763;55.802;37.404;2023-04-26T10:28:02;98138.41;;;17.91;100.00
24620;BME280;12763;55.802;37.404;2023-04-26T10:30:28;98134.50;;;17.69;100.00
24620;BME280;12763;55.802;37.404;2023-04-26T10:35:22;98147.41;;;17.36;100.00
24620;BME280;12763;55.802;37.404;2023-04-26T10:40:39;98144.75;;;16.97;100.00
24620;BME280;12763;55.802;37.404;2023-04-26T10:45:42;98155.31;;;17.76;100.00
24620;BME280;12763;55.802;37.404;2023-04-26T10:55:58;98149.63;;;17.63;100.00
24620;BME280;12763;55.802;37.404;2023-04-26T10:58:29;98159.94;;;17.38;100.00
24620;BME280;12763;55.802;37.404;2023-04-26T11:03:40;98154.16;;;19.40;95.77
24620;BME280;12763;55.802;37.404;2023-04-26T11:06:08;98159.63;;;20.40;86.98
24620;BME280;12763;55.802;37.404;2023-04-26T11:08:34;98165.91;;;20.60;83.27
24620;BME280;12763;55.802;37.404;2023-04-26T11:11:07;98156.78;;;21.12;81.41
24620;BME280;12763;55.802;37.404;2023-04-26T11:13:39;98157.97;;;22.46;74.55
24620;BME280;12763;55.802;37.404;2023-04-26T11:16:10;98163.03;;;21.71;75.56
24620;BME280;12763;55.802;37.404;2023-04-26T11:18:38;98169.81;;;20.94;79.85
24620;BME280;12763;55.802;37.404;2023-04-26T11:21:05;98164.66;;;20.52;80.22
24620;BME280;12763;55.802;37.404;2023-04-26T11:23:31;98168.72;;;19.97;83.78
24620;BME280;12763;55.802;37.404;2023-04-26T11:26:02;98167.94;;;19.50;88.21
24620;BME280;12763;55.802;37.404;2023-04-26T11:28:32;98189.44;;;19.55;84.14
24620;BME280;12763;55.802;37.404;2023-04-26T11:30:58;98188.81;;;18.93;88.72
24620;BME280;12763;55.802;37.404;2023-04-26T11:33:25;98188.56;;;18.57;91.73
24620;BME280;12763;55.802;37.404;2023-04-26T11:35:52;98189.69;;;18.56;91.44
24620;BME280;12763;55.802;37.404;2023-04-26T11:38:25;98189.06;;;18.59;93.40
24620;BME280;12763;55.802;37.404;2023-04-26T11:40:59;98195.09;;;18.29;92.11
24620;BME280;12763;55.802;37.404;2023-04-26T11:43:38;98192.19;;;18.15;95.08
24620;BME280;12763;55.802;37.404;2023-04-26T11:46:06;98193.63;;;17.94;94.24
24620;BME280;12763;55.802;37.404;2023-04-26T11:48:33;98192.91;;;17.60;96.81
24620;BME280;12763;55.802;37.404;2023-04-26T11:51:02;98198.88;;;18.38;93.08
24620;BME280;12763;55.802;37.404;2023-04-26T11:53:41;98213.28;;;18.45;93.33
24620;BME280;12763;55.802;37.404;2023-04-26T11:56:18;98214.47;;;18.20;93.70
24620;BME280;12763;55.802;37.404;2023-04-26T11:58:49;98236.59;;;17.70;96.01
24620;BME280;12763;55.802;37.404;2023-04-26T12:01:30;98232.63;;;17.76;98.00
24620;BME280;12763;55.802;37.404;2023-04-26T12:03:59;98207.59;;;18.13;96.24
24620;BME280;12763;55.802;37.404;2023-04-26T12:06:29;98202.06;;;18.50;93.32
24620;BME280;12763;55.802;37.404;2023-04-26T12:08:58;98219.56;;;17.95;89.16
24620;BME280;12763;55.802;37.404;2023-04-26T12:11:25;98215.16;;;17.36;91.61
24620;BME280;12763;55.802;37.404;2023-04-26T12:13:51;98219.56;;;17.42;91.36
24620;BME280;12763;55.802;37.404;2023-04-26T12:16:17;98204.88;;;17.32;89.41
24620;BME280;12763;55.802;37.404;2023-04-26T12:18:49;98210.34;;;17.71;90.81
24620;BME280;12763;55.802;37.404;2023-04-26T12:21:16;98200.41;;;18.49;83.04
24620;BME280;12763;55.802;37.404;2023-04-26T12:23:42;98221.94;;;18.86;78.69
24620;BME280;12763;55.802;37.404;2023-04-26T12:26:12;98213.53;;;18.86;78.43
24620;BME280;12763;55.802;37.404;2023-04-26T12:28:38;98212.19;;;19.48;76.17
24620;BME280;12763;55.802;37.404;2023-04-26T12:31:04;98228.97;;;20.71;69.79
24620;BME280;12763;55.802;37.404;2023-04-26T12:33:31;98224.03;;;21.87;64.13
24620;BME280;12763;55.802;37.404;2023-04-26T12:36:05;98210.28;;;22.99;59.36
24620;BME280;12763;55.802;37.404;2023-04-26T12:38:30;98214.09;;;23.92;55.65
24620;BME280;12763;55.802;37.404;2023-04-26T12:40:56;98214.34;;;21.93;63.26
24620;BME280;12763;55.802;37.404;2023-04-26T12:43:22;98214.16;;;22.38;61.13
24620;BME280;12763;55.802;37.404;2023-04-26T12:45:51;98222.22;;;23.38;57.84
24620;BME280;12763;55.802;37.404;2023-04-26T12:48:16;98213.03;;;24.14;55.17
24620;BME280;12763;55.802;37.404;2023-04-26T12:50:42;98220.69;;;23.50;57.16
24620;BME280;12763;55.802;37.404;2023-04-26T12:53:08;98218.16;;;23.74;55.79
24620;BME280;12763;55.802;37.404;2023-04-26T12:55:35;98226.31;;;24.13;53.95
24620;BME280;12763;55.802;37.404;2023-04-26T12:58:01;98222.56;;;24.88;51.54
24620;BME280;12763;55.802;37.404;2023-04-26T13:00:27;98228.91;;;24.85;52.02
24620;BME280;12763;55.802;37.404;2023-04-26T13:02:53;98239.38;;;25.92;48.62
24620;BME280;12763;55.802;37.404;2023-04-26T13:05:21;98231.81;;;24.68;50.57
24620;BME280;12763;55.802;37.404;2023-04-26T13:07:49;98220.47;;;24.77;50.79
24620;BME280;12763;55.802;37.404;2023-04-26T13:10:16;98224.34;;;23.42;52.04
24620;BME280;12763;55.802;37.404;2023-04-26T13:12:42;98238.25;;;22.78;55.50
24620;BME280;12763;55.802;37.404;2023-04-26T13:15:08;98239.75;;;21.35;61.00
24620;BME280;12763;55.802;37.404;2023-04-26T13:17:35;98240.25;;;22.86;57.12
24620;BME280;12763;55.802;37.404;2023-04-26T13:20:03;98252.47;;;22.90;54.61